Terminal Aerodrome Forecast
Issued by NWS

Home | Current Version | Previous Version | Text Only | Print | Product List | Glossary On
Versions: 1 2 3 4 5 6 7 8 9 10 11 12 13 14 15 16 17 18
000
FTUS43 KMQT 190500
TAFCMX
TAF
KCMX 190520Z 1906/2006 09007KT P6SM BKN250
     FM190800 17006KT P6SM SCT015 WS015/20035KT
     FM191400 20015G22KT P6SM BKN100
     FM192100 20015G22KT P6SM VCSH BKN040
     FM200200 23010KT P6SM -SHRA SCT025 BKN035=

USA.gov is the U.S. government's official web portal to all federal, state and local government web resources and services.